Time;durP1;ratioP1;P1;durP2;ratioP2;P2;SDS_P1;SDS_P2;PMS_P1;PMS_P2;Temp;Humidity;BMP_temperature;BMP_pressure;BME280_temperature;BME280_humidity;BME280_pressure;Samples;Min_cycle;Max_cycle;Signal;HPM_P1;HPM_P2
2022/04/16 00:00:52;;;;;;;16.58;7.28;;;;;;;;;;4994517;28;20499;-75
2022/04/16 00:03:21;;;;;;;20.73;7.28;;;;;;;;;;4993597;28;20375;-75
2022/04/16 00:05:48;;;;;;;17.88;9.00;;;;;;;;;;4993084;28;20033;-76
2022/04/16 00:08:14;;;;;;;15.20;7.68;;;;;;;;;;4993607;28;20050;-77
2022/04/16 00:10:40;;;;;;;18.60;7.85;;;;;;;;;;4992958;28;20065;-77
2022/04/16 00:13:07;;;;;;;14.63;7.20;;;;;;;;;;4992886;28;20034;-76
2022/04/16 00:15:33;;;;;;;13.43;6.78;;;;;;;;;;4992809;28;20040;-75
2022/04/16 00:17:59;;;;;;;15.30;7.75;;;;;;;;;;4993192;28;20105;-76
2022/04/16 00:20:27;;;;;;;11.32;6.15;;;;;;;;;;4995210;28;20157;-74
2022/04/16 00:22:53;;;;;;;14.85;6.68;;;;;;;;;;5000624;28;20026;-75
2022/04/16 00:25:19;;;;;;;15.10;6.55;;;;;;;;;;4994435;28;20027;-75
2022/04/16 00:27:46;;;;;;;13.45;6.82;;;;;;;;;;4992862;28;20337;-75
2022/04/16 00:30:12;;;;;;;14.27;6.57;;;;;;;;;;4992967;28;20198;-76
2022/04/16 00:32:40;;;;;;;13.60;6.45;;;;;;;;;;4992511;28;20122;-75
2022/04/16 00:35:07;;;;;;;16.27;6.13;;;;;;;;;;4992734;28;20061;-75
2022/04/16 00:37:33;;;;;;;12.82;5.82;;;;;;;;;;4993962;28;20042;-76
2022/04/16 00:39:59;;;;;;;17.67;6.97;;;;;;;;;;4994330;28;20030;-75
2022/04/16 00:42:25;;;;;;;14.35;6.35;;;;;;;;;;4992592;28;20026;-75
2022/04/16 00:44:51;;;;;;;12.68;5.50;;;;;;;;;;4992553;28;20101;-77
2022/04/16 00:47:17;;;;;;;15.75;6.60;;;;;;;;;;4992436;28;20157;-77
2022/04/16 00:49:43;;;;;;;12.25;5.78;;;;;;;;;;4991521;28;20054;-76
2022/04/16 00:52:09;;;;;;;13.13;6.20;;;;;;;;;;4994814;28;20449;-76
2022/04/16 00:54:35;;;;;;;15.35;6.93;;;;;;;;;;4998607;28;20041;-76
2022/04/16 00:57:01;;;;;;;16.27;6.82;;;;;;;;;;4994427;28;20352;-77
2022/04/16 00:59:27;;;;;;;13.75;5.88;;;;;;;;;;4994531;28;20030;-77
2022/04/16 01:01:53;;;;;;;15.90;6.68;;;;;;;;;;4997250;28;20022;-75
2022/04/16 01:04:19;;;;;;;14.68;6.25;;;;;;;;;;5004088;28;20098;-78
2022/04/16 01:06:48;;;;;;;13.45;5.88;;;;;;;;;;5016868;28;20053;-75
2022/04/16 01:09:15;;;;;;;14.57;5.60;;;;;;;;;;5021897;28;20049;-77
2022/04/16 01:11:41;;;;;;;12.35;5.70;;;;;;;;;;4997029;28;20484;-76
2022/04/16 01:14:07;;;;;;;13.20;5.40;;;;;;;;;;4994187;28;20026;-75
2022/04/16 01:16:34;;;;;;;11.80;5.22;;;;;;;;;;4995634;28;20033;-77
2022/04/16 01:19:01;;;;;;;11.85;6.15;;;;;;;;;;4995573;28;20026;-77
2022/04/16 01:21:27;;;;;;;14.77;6.00;;;;;;;;;;4995688;28;20029;-76
2022/04/16 01:23:53;;;;;;;11.43;5.32;;;;;;;;;;4996250;28;20440;-76
2022/04/16 01:26:20;;;;;;;14.57;6.13;;;;;;;;;;4995740;28;20034;-76
2022/04/16 01:28:46;;;;;;;18.25;6.38;;;;;;;;;;4996162;28;20022;-77
2022/04/16 01:31:12;;;;;;;10.70;5.57;;;;;;;;;;4996541;28;20037;-75
2022/04/16 01:33:38;;;;;;;16.63;6.53;;;;;;;;;;4997092;28;20503;-75
2022/04/16 01:36:05;;;;;;;12.30;5.25;;;;;;;;;;4996831;28;20387;-76
2022/04/16 01:38:31;;;;;;;13.57;6.38;;;;;;;;;;4995534;28;20026;-75
2022/04/16 01:40:58;;;;;;;15.20;6.25;;;;;;;;;;4995538;28;20022;-77
2022/04/16 01:43:24;;;;;;;10.57;5.88;;;;;;;;;;4995485;28;20033;-75
2022/04/16 01:45:50;;;;;;;15.85;6.28;;;;;;;;;;4995633;28;20070;-77
2022/04/16 01:48:21;;;;;;;11.98;5.63;;;;;;;;;;4996198;28;20037;-75
2022/04/16 01:50:48;;;;;;;12.65;5.50;;;;;;;;;;4996701;28;20041;-76
2022/04/16 01:53:14;;;;;;;12.20;5.75;;;;;;;;;;4996441;28;20027;-75
2022/04/16 01:55:40;;;;;;;10.20;5.70;;;;;;;;;;5002252;28;20439;-74
2022/04/16 01:58:06;;;;;;;14.32;6.20;;;;;;;;;;4995393;28;20494;-76
2022/04/16 02:00:33;;;;;;;13.82;6.13;;;;;;;;;;4993694;28;20092;-74
2022/04/16 02:02:59;;;;;;;11.25;5.25;;;;;;;;;;4995139;28;20034;-77
2022/04/16 02:05:25;;;;;;;12.38;5.28;;;;;;;;;;4995016;28;20026;-75
2022/04/16 02:07:51;;;;;;;10.10;5.10;;;;;;;;;;4995040;28;20022;-77
2022/04/16 02:10:17;;;;;;;10.75;5.82;;;;;;;;;;4995026;28;20049;-75
2022/04/16 02:12:44;;;;;;;12.07;5.20;;;;;;;;;;4994715;28;20045;-77
2022/04/16 02:15:10;;;;;;;13.07;5.55;;;;;;;;;;4996149;28;20468;-77
2022/04/16 02:17:37;;;;;;;10.20;5.15;;;;;;;;;;4996386;28;20040;-76
2022/04/16 02:20:07;;;;;;;10.13;5.38;;;;;;;;;;4997718;28;20030;-77
2022/04/16 02:22:40;;;;;;;11.50;5.22;;;;;;;;;;4998730;28;20053;-76
2022/04/16 02:25:08;;;;;;;14.05;5.32;;;;;;;;;;4998801;28;20470;-76
2022/04/16 02:27:34;;;;;;;11.15;5.07;;;;;;;;;;4997805;28;20023;-76
2022/04/16 02:30:00;;;;;;;10.95;4.68;;;;;;;;;;4995640;28;20022;-76
2022/04/16 02:32:26;;;;;;;12.20;5.03;;;;;;;;;;4994375;28;20117;-75
2022/04/16 02:34:52;;;;;;;14.32;5.85;;;;;;;;;;4994421;28;20492;-76
2022/04/16 02:37:18;;;;;;;14.05;5.22;;;;;;;;;;4994064;28;20037;-75
2022/04/16 02:39:44;;;;;;;7.50;4.20;;;;;;;;;;4995667;28;20391;-78
2022/04/16 02:42:13;;;;;;;9.13;4.70;;;;;;;;;;4993659;28;20053;-76
2022/04/16 02:47:23;;;;;;;11.90;4.40;;;;;;;;;;4994446;28;20081;-76
2022/04/16 02:49:49;;;;;;;11.55;4.38;;;;;;;;;;4995137;28;20038;-75
2022/04/16 02:52:15;;;;;;;11.52;4.75;;;;;;;;;;4994779;28;20037;-76
2022/04/16 02:54:41;;;;;;;10.73;4.35;;;;;;;;;;4994252;28;20037;-75
2022/04/16 02:57:07;;;;;;;6.97;4.03;;;;;;;;;;4994443;28;20026;-77
2022/04/16 02:59:35;;;;;;;8.32;4.82;;;;;;;;;;5003928;28;20062;-77
2022/04/16 03:02:01;;;;;;;10.70;4.57;;;;;;;;;;5018797;28;20022;-76
2022/04/16 03:04:27;;;;;;;8.55;4.22;;;;;;;;;;5018697;28;20041;-77
2022/04/16 03:06:53;;;;;;;8.90;4.20;;;;;;;;;;5014880;28;20041;-77
2022/04/16 03:09:19;;;;;;;10.20;4.68;;;;;;;;;;5017970;28;20082;-76
2022/04/16 03:11:45;;;;;;;9.32;3.97;;;;;;;;;;5017256;28;20041;-77
2022/04/16 03:19:40;;;;;;;10.27;4.30;;;;;;;;;;5007080;28;20084;-76
2022/04/16 03:22:06;;;;;;;10.82;4.10;;;;;;;;;;5007638;28;20026;-75
2022/04/16 03:24:32;;;;;;;9.60;3.83;;;;;;;;;;5006036;28;20065;-77
2022/04/16 03:26:58;;;;;;;8.07;4.10;;;;;;;;;;4993903;28;20037;-76
2022/04/16 03:29:24;;;;;;;7.35;3.65;;;;;;;;;;4994273;28;20105;-75
2022/04/16 03:31:50;;;;;;;8.10;3.80;;;;;;;;;;4993723;28;20069;-76
2022/04/16 03:34:16;;;;;;;9.88;3.88;;;;;;;;;;4994603;28;20031;-75
2022/04/16 03:36:42;;;;;;;13.32;4.20;;;;;;;;;;4995845;28;20066;-76
2022/04/16 03:39:08;;;;;;;7.68;3.67;;;;;;;;;;4998093;28;20113;-76
2022/04/16 03:41:34;;;;;;;10.70;4.22;;;;;;;;;;4997672;28;20037;-76
2022/04/16 03:44:00;;;;;;;7.15;3.60;;;;;;;;;;4997950;28;20022;-76
2022/04/16 03:46:26;;;;;;;10.43;3.85;;;;;;;;;;4996599;28;20033;-76
2022/04/16 03:48:51;;;;;;;7.35;3.72;;;;;;;;;;4997173;28;20537;-75
2022/04/16 03:51:17;;;;;;;10.20;3.80;;;;;;;;;;4996759;28;20065;-77
2022/04/16 03:53:43;;;;;;;11.35;3.67;;;;;;;;;;4999572;28;20038;-75
2022/04/16 04:01:59;;;;;;;8.77;3.78;;;;;;;;;;4973577;28;20034;-75
2022/04/16 04:04:24;;;;;;;9.85;4.07;;;;;;;;;;5032039;22;20056;-79
2022/04/16 04:06:50;;;;;;;9.45;3.75;;;;;;;;;;5015162;28;20030;-78
2022/04/16 04:09:16;;;;;;;10.88;4.15;;;;;;;;;;5029434;28;20057;-78
2022/04/16 04:11:42;;;;;;;9.23;4.35;;;;;;;;;;5015241;28;20495;-78
2022/04/16 04:14:08;;;;;;;14.18;4.68;;;;;;;;;;5016326;28;20026;-78
2022/04/16 04:16:35;;;;;;;7.93;3.92;;;;;;;;;;5014813;28;20065;-78
2022/04/16 04:19:01;;;;;;;8.90;4.25;;;;;;;;;;5014074;28;20026;-78
2022/04/16 04:21:27;;;;;;;8.40;3.80;;;;;;;;;;5015111;28;20110;-78
2022/04/16 04:23:53;;;;;;;13.20;4.13;;;;;;;;;;5016828;28;20064;-79
2022/04/16 04:26:19;;;;;;;9.95;4.82;;;;;;;;;;5014320;28;20030;-78
2022/04/16 04:28:44;;;;;;;12.98;4.53;;;;;;;;;;5015436;28;20026;-78
2022/04/16 04:31:10;;;;;;;12.27;4.57;;;;;;;;;;5015915;28;20088;-78
2022/04/16 04:33:36;;;;;;;9.73;4.80;;;;;;;;;;5014588;28;20026;-79
2022/04/16 04:36:02;;;;;;;9.25;3.88;;;;;;;;;;5014197;28;20495;-79
2022/04/16 04:38:28;;;;;;;10.73;4.22;;;;;;;;;;5014599;28;20060;-79
2022/04/16 04:40:54;;;;;;;12.10;4.05;;;;;;;;;;5027125;28;20017;-79
2022/04/16 04:43:20;;;;;;;10.55;3.90;;;;;;;;;;5036103;28;20018;-81
2022/04/16 04:45:47;;;;;;;10.50;4.45;;;;;;;;;;5036519;28;20064;-80
2022/04/16 04:48:13;;;;;;;7.18;3.75;;;;;;;;;;5026766;28;20026;-79
2022/04/16 04:50:39;;;;;;;7.38;3.40;;;;;;;;;;5036043;28;20041;-80
2022/04/16 04:53:05;;;;;;;7.50;3.30;;;;;;;;;;5041228;28;20025;-80
2022/04/16 04:55:31;;;;;;;10.07;3.80;;;;;;;;;;5040853;28;20061;-81
2022/04/16 04:57:57;;;;;;;8.63;3.60;;;;;;;;;;5033187;28;20080;-80
2022/04/16 05:00:23;;;;;;;10.60;4.32;;;;;;;;;;5022759;28;20041;-78
2022/04/16 05:02:49;;;;;;;8.52;3.42;;;;;;;;;;5019374;28;20426;-77
2022/04/16 05:05:15;;;;;;;9.10;3.45;;;;;;;;;;5018030;28;20081;-80
2022/04/16 05:07:42;;;;;;;8.02;3.53;;;;;;;;;;5018032;28;20037;-78
2022/04/16 05:10:08;;;;;;;7.90;3.95;;;;;;;;;;5016689;28;20022;-79
2022/04/16 05:12:34;;;;;;;12.00;4.25;;;;;;;;;;5022941;28;20022;-80
2022/04/16 05:15:00;;;;;;;15.23;3.85;;;;;;;;;;5029554;28;20034;-79
2022/04/16 05:17:27;;;;;;;8.98;3.90;;;;;;;;;;5022770;28;20029;-78
2022/04/16 05:19:53;;;;;;;11.88;4.28;;;;;;;;;;5028346;28;20056;-79
2022/04/16 05:22:19;;;;;;;9.15;4.28;;;;;;;;;;5021741;28;20022;-79
2022/04/16 05:24:45;;;;;;;13.48;5.40;;;;;;;;;;5024144;28;20026;-80
2022/04/16 05:27:11;;;;;;;10.35;5.32;;;;;;;;;;5021894;28;20029;-79
2022/04/16 05:29:56;;;;;;;13.35;5.20;;;;;;;;;;5020186;28;20049;-78
2022/04/16 05:32:23;;;;;;;;;;;;;;;;;;5020010;28;20057;-78
2022/04/16 05:34:49;;;;;;;14.68;5.07;;;;;;;;;;5017970;28;19912;-78
2022/04/16 05:37:15;;;;;;;9.02;4.53;;;;;;;;;;5018048;28;20026;-76
2022/04/16 05:39:41;;;;;;;13.20;4.57;;;;;;;;;;5015188;28;20049;-78
2022/04/16 05:42:08;;;;;;;10.98;4.88;;;;;;;;;;5016500;28;20029;-77
2022/04/16 05:44:34;;;;;;;10.80;4.72;;;;;;;;;;5016131;28;20027;-78
2022/04/16 05:47:00;;;;;;;9.13;3.88;;;;;;;;;;5016056;28;20034;-78
2022/04/16 05:49:26;;;;;;;12.35;4.85;;;;;;;;;;5016169;28;20028;-77
2022/04/16 05:51:52;;;;;;;13.15;6.25;;;;;;;;;;5016642;28;20105;-79
2022/04/16 05:54:18;;;;;;;16.15;6.63;;;;;;;;;;5018002;28;20026;-78
2022/04/16 05:56:44;;;;;;;16.05;5.97;;;;;;;;;;5016442;28;20459;-77
2022/04/16 05:59:10;;;;;;;22.45;12.13;;;;;;;;;;5016319;28;20026;-78
2022/04/16 06:01:36;;;;;;;11.50;5.22;;;;;;;;;;5016163;28;20022;-77
2022/04/16 06:04:02;;;;;;;15.27;4.72;;;;;;;;;;5015519;28;20034;-79
2022/04/16 06:06:28;;;;;;;14.48;5.63;;;;;;;;;;5017397;28;20030;-77
2022/04/16 06:08:54;;;;;;;9.38;4.20;;;;;;;;;;5014886;28;20045;-76
2022/04/16 06:11:20;;;;;;;12.80;4.43;;;;;;;;;;5016696;28;20076;-78
2022/04/16 06:13:46;;;;;;;10.50;3.50;;;;;;;;;;5017700;28;20471;-77
2022/04/16 06:16:12;;;;;;;16.23;3.40;;;;;;;;;;5015408;28;20037;-78
2022/04/16 06:18:39;;;;;;;8.02;2.92;;;;;;;;;;5018840;28;20017;-78
2022/04/16 06:21:05;;;;;;;11.02;3.45;;;;;;;;;;5017114;28;20025;-77
2022/04/16 06:23:31;;;;;;;10.25;2.88;;;;;;;;;;5016606;28;20076;-78
2022/04/16 06:25:58;;;;;;;7.22;2.70;;;;;;;;;;5015676;28;20036;-79
2022/04/16 06:28:23;;;;;;;10.90;3.13;;;;;;;;;;5016146;28;20029;-77
2022/04/16 06:30:49;;;;;;;6.50;2.67;;;;;;;;;;5016004;28;20030;-78
2022/04/16 06:33:15;;;;;;;9.20;2.55;;;;;;;;;;5016290;28;20056;-78
2022/04/16 06:35:42;;;;;;;7.13;2.80;;;;;;;;;;5016943;28;20526;-77
2022/04/16 06:38:08;;;;;;;12.15;3.03;;;;;;;;;;5016786;28;20026;-78
2022/04/16 06:40:33;;;;;;;9.40;2.60;;;;;;;;;;5017195;28;20080;-79
2022/04/16 06:43:00;;;;;;;7.18;2.40;;;;;;;;;;5029131;28;20030;-77
2022/04/16 06:45:26;;;;;;;6.15;2.45;;;;;;;;;;5035582;28;20057;-78
2022/04/16 06:47:52;;;;;;;4.90;2.28;;;;;;;;;;5024448;28;20088;-77
2022/04/16 06:50:18;;;;;;;9.07;2.25;;;;;;;;;;5024220;28;20029;-78
2022/04/16 06:52:45;;;;;;;7.63;2.22;;;;;;;;;;5022343;28;20037;-77
2022/04/16 06:55:11;;;;;;;7.22;2.17;;;;;;;;;;5015460;28;20033;-78
2022/04/16 06:57:37;;;;;;;11.38;3.50;;;;;;;;;;5014331;28;20459;-77
2022/04/16 07:00:06;;;;;;;5.25;2.10;;;;;;;;;;5016923;28;20033;-78
2022/04/16 07:02:32;;;;;;;6.68;2.08;;;;;;;;;;5021148;28;20026;-78
2022/04/16 07:04:58;;;;;;;18.15;6.55;;;;;;;;;;5017072;28;20095;-78
2022/04/16 07:07:24;;;;;;;16.50;4.40;;;;;;;;;;5015792;28;20097;-78
2022/04/16 07:09:50;;;;;;;16.65;5.97;;;;;;;;;;5016089;28;20031;-79
2022/04/16 07:12:16;;;;;;;11.18;3.80;;;;;;;;;;5025887;28;20026;-79
2022/04/16 07:14:42;;;;;;;10.35;3.22;;;;;;;;;;5020515;28;20032;-78
2022/04/16 07:17:09;;;;;;;9.07;2.95;;;;;;;;;;5016783;28;20691;-79
2022/04/16 07:19:35;;;;;;;10.98;3.80;;;;;;;;;;5018294;28;20033;-78
2022/04/16 07:22:02;;;;;;;6.57;1.98;;;;;;;;;;5016409;28;20097;-79
2022/04/16 07:24:27;;;;;;;7.50;1.95;;;;;;;;;;5014580;28;20049;-78
2022/04/16 07:26:54;;;;;;;6.63;1.70;;;;;;;;;;5018430;28;20026;-80
2022/04/16 07:29:26;;;;;;;7.13;2.00;;;;;;;;;;5022753;28;20029;-79
2022/04/16 07:31:52;;;;;;;5.80;1.83;;;;;;;;;;5024845;28;20057;-78
2022/04/16 07:34:19;;;;;;;5.10;1.60;;;;;;;;;;5031468;28;20058;-78
2022/04/16 07:36:45;;;;;;;5.95;2.05;;;;;;;;;;5028150;28;20034;-77
2022/04/16 07:39:12;;;;;;;3.75;1.30;;;;;;;;;;5020830;28;20418;-77
2022/04/16 07:41:38;;;;;;;6.28;1.30;;;;;;;;;;5015102;28;20029;-77
2022/04/16 07:44:04;;;;;;;2.80;1.30;;;;;;;;;;5014219;28;20022;-78
2022/04/16 07:46:30;;;;;;;7.10;1.70;;;;;;;;;;5014030;28;20091;-77
2022/04/16 07:48:57;;;;;;;4.13;1.50;;;;;;;;;;5014476;28;20390;-76
2022/04/16 07:51:23;;;;;;;5.50;1.58;;;;;;;;;;5015971;28;20030;-78
2022/04/16 07:53:49;;;;;;;4.13;1.17;;;;;;;;;;5014354;28;20109;-78
2022/04/16 07:56:15;;;;;;;2.75;1.10;;;;;;;;;;5015075;28;20609;-78
2022/04/16 07:58:41;;;;;;;4.32;1.30;;;;;;;;;;5014642;28;20026;-77
2022/04/16 08:01:07;;;;;;;6.82;1.10;;;;;;;;;;5015510;28;20075;-78
2022/04/16 08:03:33;;;;;;;5.10;1.30;;;;;;;;;;5014174;28;20125;-78
2022/04/16 08:05:59;;;;;;;3.47;1.23;;;;;;;;;;5013672;28;20107;-79
2022/04/16 08:08:25;;;;;;;6.63;1.40;;;;;;;;;;5016442;28;20026;-79
2022/04/16 08:10:53;;;;;;;4.95;1.45;;;;;;;;;;5015750;28;20048;-78
2022/04/16 08:13:19;;;;;;;5.78;1.38;;;;;;;;;;5015774;28;20022;-79
2022/04/16 08:15:45;;;;;;;3.50;1.17;;;;;;;;;;5015593;28;20076;-80
2022/04/16 08:18:11;;;;;;;2.47;1.00;;;;;;;;;;5016448;28;20032;-79
2022/04/16 08:20:37;;;;;;;3.38;1.65;;;;;;;;;;5014975;28;20026;-78
2022/04/16 08:23:06;;;;;;;8.77;1.48;;;;;;;;;;5016082;28;20030;-78
2022/04/16 08:28:01;;;;;;;4.72;1.25;;;;;;;;;;5021583;28;20038;-79
2022/04/16 08:30:27;;;;;;;3.22;1.08;;;;;;;;;;5026335;28;20026;-81
2022/04/16 08:32:54;;;;;;;3.15;1.45;;;;;;;;;;5023235;28;20060;-78
2022/04/16 08:35:20;;;;;;;5.25;1.30;;;;;;;;;;5019892;28;20041;-77
2022/04/16 08:37:47;;;;;;;1.73;1.13;;;;;;;;;;5019650;28;20026;-77
2022/04/16 08:40:14;;;;;;;3.15;1.10;;;;;;;;;;5017381;28;20022;-78
2022/04/16 08:42:40;;;;;;;3.90;1.20;;;;;;;;;;5018824;28;20101;-78
2022/04/16 08:45:07;;;;;;;3.65;1.00;;;;;;;;;;5018091;28;20026;-80
2022/04/16 08:47:33;;;;;;;2.38;1.27;;;;;;;;;;5017613;28;20121;-78
2022/04/16 08:50:00;;;;;;;2.95;1.30;;;;;;;;;;5016504;28;20450;-79
2022/04/16 08:52:30;;;;;;;3.22;1.30;;;;;;;;;;5016679;28;20093;-78
2022/04/16 08:55:00;;;;;;;2.10;1.30;;;;;;;;;;5019557;28;20036;-79
2022/04/16 08:57:26;;;;;;;2.38;1.35;;;;;;;;;;5019371;28;20029;-78
2022/04/16 08:59:53;;;;;;;4.68;1.67;;;;;;;;;;5027064;28;20489;-80
2022/04/16 09:02:19;;;;;;;7.07;1.70;;;;;;;;;;5021632;28;20014;-78
2022/04/16 09:04:46;;;;;;;3.85;1.70;;;;;;;;;;5019755;28;20030;-78
2022/04/16 09:07:13;;;;;;;2.45;1.25;;;;;;;;;;5022726;28;20030;-79
2022/04/16 09:09:39;;;;;;;2.05;1.30;;;;;;;;;;5023884;28;20394;-78
2022/04/16 09:12:15;;;;;;;3.10;1.30;;;;;;;;;;5019991;28;20026;-79
2022/04/16 09:14:44;;;;;;;4.65;1.15;;;;;;;;;;5018835;28;20034;-78
2022/04/16 09:17:14;;;;;;;3.00;1.50;;;;;;;;;;5019818;28;20032;-77
2022/04/16 09:19:40;;;;;;;3.22;0.98;;;;;;;;;;5021501;28;20029;-78
2022/04/16 09:22:08;;;;;;;7.00;1.40;;;;;;;;;;5021614;28;20032;-76
2022/04/16 09:24:47;;;;;;;3.20;1.30;;;;;;;;;;5019045;28;20022;-79
2022/04/16 09:27:13;;;;;;;2.40;1.17;;;;;;;;;;5023935;28;20129;-78
2022/04/16 09:29:40;;;;;;;5.10;1.40;;;;;;;;;;5020151;28;20113;-79
2022/04/16 09:32:07;;;;;;;4.55;2.05;;;;;;;;;;5019466;28;20034;-78
2022/04/16 09:34:33;;;;;;;5.90;1.60;;;;;;;;;;5024734;28;20033;-78
2022/04/16 09:37:11;;;;;;;4.38;1.60;;;;;;;;;;5031495;28;20095;-78
2022/04/16 09:39:37;;;;;;;2.75;1.40;;;;;;;;;;5032860;28;20018;-78
2022/04/16 09:42:04;;;;;;;20.38;8.25;;;;;;;;;;5030349;28;20044;-79
2022/04/16 09:44:30;;;;;;;1.65;1.05;;;;;;;;;;5031568;28;20106;-79
2022/04/16 09:46:56;;;;;;;7.38;2.53;;;;;;;;;;5029664;28;20034;-78
2022/04/16 09:49:23;;;;;;;3.42;1.50;;;;;;;;;;5025180;28;20049;-79
2022/04/16 09:51:50;;;;;;;4.53;2.40;;;;;;;;;;5027078;28;20097;-80
2022/04/16 09:54:16;;;;;;;3.83;1.50;;;;;;;;;;5020567;28;20081;-76
2022/04/16 09:56:46;;;;;;;3.58;1.50;;;;;;;;;;5020786;28;20029;-78
2022/04/16 09:59:13;;;;;;;3.35;1.73;;;;;;;;;;5018674;28;20022;-77
2022/04/16 10:01:41;;;;;;;4.53;1.35;;;;;;;;;;5018975;28;20026;-77
2022/04/16 10:04:07;;;;;;;5.57;2.13;;;;;;;;;;5020365;28;20084;-77
2022/04/16 10:06:34;;;;;;;4.22;1.80;;;;;;;;;;5018491;28;20029;-77
2022/04/16 10:09:13;;;;;;;5.13;1.70;;;;;;;;;;5022600;28;20029;-77
2022/04/16 10:11:42;;;;;;;5.72;2.00;;;;;;;;;;5022612;28;20030;-76
2022/04/16 10:14:23;;;;;;;4.10;1.73;;;;;;;;;;5022703;28;20093;-77
2022/04/16 10:16:55;;;;;;;4.55;1.70;;;;;;;;;;5026932;28;20037;-76
2022/04/16 10:19:21;;;;;;;2.35;1.50;;;;;;;;;;5036412;28;20037;-76
2022/04/16 10:21:53;;;;;;;3.05;1.58;;;;;;;;;;5036801;28;20037;-74
2022/04/16 10:24:25;;;;;;;4.43;1.73;;;;;;;;;;5034111;28;20376;-78
2022/04/16 10:26:51;;;;;;;3.30;1.80;;;;;;;;;;5032411;28;20022;-76
2022/04/16 10:29:19;;;;;;;2.75;1.40;;;;;;;;;;5033324;28;20048;-77
2022/04/16 10:31:52;;;;;;;2.95;1.42;;;;;;;;;;5035691;28;20017;-76
2022/04/16 10:34:29;;;;;;;3.13;1.65;;;;;;;;;;5024028;28;20565;-77
2022/04/16 10:36:55;;;;;;;3.97;1.75;;;;;;;;;;5020406;28;20393;-78
2022/04/16 10:39:24;;;;;;;5.60;2.05;;;;;;;;;;5021066;28;20022;-79
2022/04/16 10:41:57;;;;;;;4.05;1.73;;;;;;;;;;5023269;28;20045;-77
2022/04/16 10:44:24;;;;;;;3.67;1.92;;;;;;;;;;5023293;28;20032;-79
2022/04/16 10:46:51;;;;;;;4.35;1.50;;;;;;;;;;5021227;28;20033;-78
2022/04/16 10:49:18;;;;;;;3.67;1.63;;;;;;;;;;5036986;28;20006;-75
2022/04/16 10:51:44;;;;;;;2.85;1.70;;;;;;;;;;5033656;28;20521;-76
2022/04/16 10:54:11;;;;;;;4.10;1.67;;;;;;;;;;5027243;28;20037;-75
2022/04/16 10:56:39;;;;;;;3.95;1.83;;;;;;;;;;5031519;28;20030;-76
2022/04/16 10:59:06;;;;;;;5.32;2.20;;;;;;;;;;5019955;28;20024;-77
2022/04/16 11:01:32;;;;;;;6.78;1.88;;;;;;;;;;5021365;28;20025;-78
2022/04/16 11:03:58;;;;;;;4.47;2.08;;;;;;;;;;5022380;28;20076;-78
2022/04/16 11:06:34;;;;;;;8.55;2.70;;;;;;;;;;5029232;28;20041;-79
2022/04/16 11:09:00;;;;;;;3.60;2.22;;;;;;;;;;5021678;28;20051;-80
2022/04/16 11:11:26;;;;;;;5.35;1.98;;;;;;;;;;5021237;28;20030;-79
2022/04/16 11:13:52;;;;;;;3.40;2.10;;;;;;;;;;5017386;28;20390;-77
2022/04/16 11:16:24;;;;;;;6.07;1.85;;;;;;;;;;5017437;28;20112;-77
2022/04/16 11:18:50;;;;;;;4.03;2.03;;;;;;;;;;5016453;28;20058;-78
2022/04/16 11:21:23;;;;;;;3.17;1.77;;;;;;;;;;5018279;28;20026;-77
2022/04/16 11:23:51;;;;;;;3.63;1.92;;;;;;;;;;5017621;28;20018;-77
2022/04/16 11:34:34;;;;;;;;;;;8.20;99.90;;;;;;5017136;28;20064;-76
2022/04/16 11:37:00;;;;;;;3.50;1.73;;;16.00;84.30;;;;;;5016701;28;19909;-78
2022/04/16 11:39:30;;;;;;;5.05;2.63;;;16.10;83.40;;;;;;5017440;28;20018;-77
2022/04/16 11:41:58;;;;;;;5.88;2.08;;;16.40;81.30;;;;;;5018610;28;20105;-77
2022/04/16 11:44:38;;;;;;;4.50;1.98;;;16.60;79.40;;;;;;5019498;28;20014;-78
2022/04/16 11:47:20;;;;;;;3.25;1.85;;;16.90;78.00;;;;;;5016316;28;20018;-77
2022/04/16 11:49:48;;;;;;;4.35;1.88;;;17.30;75.30;;;;;;5018652;28;20105;-77
2022/04/16 11:52:15;;;;;;;5.50;2.50;;;17.80;72.00;;;;;;5018970;28;20477;-76
2022/04/16 11:54:41;;;;;;;7.00;3.53;;;18.10;70.70;;;;;;5019690;28;20100;-78
2022/04/16 11:57:07;;;;;;;5.43;2.88;;;18.50;69.60;;;;;;5017378;28;20057;-77
2022/04/16 11:59:34;;;;;;;5.93;3.20;;;19.00;68.10;;;;;;5017140;28;20109;-78
2022/04/16 12:02:07;;;;;;;6.70;2.75;;;19.40;64.90;;;;;;5031152;28;20046;-76
2022/04/16 12:04:34;;;;;;;8.82;2.75;;;19.60;62.50;;;;;;5036688;28;20058;-74
2022/04/16 12:07:00;;;;;;;14.25;5.85;;;20.30;61.80;;;;;;5036886;28;20014;-76
2022/04/16 12:09:25;;;;;;;5.28;1.90;;;21.20;55.90;;;;;;5036905;28;20086;-75
2022/04/16 12:11:55;;;;;;;4.25;1.60;;;;;;;;;;5031808;28;20030;-77
2022/04/16 12:14:23;;;;;;;7.80;2.10;;;;;;;;;;5018808;28;20379;-77
2022/04/16 12:16:59;;;;;;;4.05;1.70;;;;;;;;;;5015943;28;20034;-76
2022/04/16 12:19:28;;;;;;;3.20;1.80;;;;;;;;;;5016497;28;20342;-78
2022/04/16 12:21:54;;;;;;;5.55;1.83;;;;;;;;;;5015438;28;20355;-78
2022/04/16 12:24:30;;;;;;;6.70;1.40;;;;;;;;;;5016801;28;20053;-77
2022/04/16 12:26:59;;;;;;;3.20;1.60;;;;;;;;;;5019716;28;20048;-76
2022/04/16 12:29:29;;;;;;;3.45;1.60;;;;;;;;;;5021482;28;20022;-78
2022/04/16 12:32:01;;;;;;;6.38;2.35;;;;;;;;;;5021096;28;20019;-78
2022/04/16 12:34:27;;;;;;;4.32;1.88;;;;;;;;;;5030163;28;20022;-77
2022/04/16 12:36:53;;;;;;;4.10;1.73;;;;;;;;;;5028077;28;20089;-76
2022/04/16 12:39:19;;;;;;;3.05;1.60;;;;;;;;;;5031469;28;20034;-79
2022/04/16 12:41:45;;;;;;;4.25;2.08;;;;;;;;;;5031589;28;20026;-76
2022/04/16 12:44:11;;;;;;;2.55;1.55;;;;;;;;;;5031560;28;20025;-76
2022/04/16 12:46:37;;;;;;;3.20;2.00;;;;;;;;;;5033854;28;20078;-75
2022/04/16 12:49:04;;;;;;;5.32;1.67;;;;;;;;;;5033573;28;20078;-75
2022/04/16 12:51:29;;;;;;;3.72;1.67;;;;;;;;;;5031609;28;20040;-76
2022/04/16 12:53:56;;;;;;;6.47;1.90;;;;;;;;;;5030667;28;20487;-77
2022/04/16 12:56:22;;;;;;;3.45;1.90;;;;;;;;;;5028372;28;20057;-76
2022/04/16 12:58:47;;;;;;;3.63;1.77;;;;;;;;;;5029265;28;20093;-76
2022/04/16 13:01:13;;;;;;;3.90;2.28;;;;;;;;;;5029302;28;20033;-75
2022/04/16 13:03:40;;;;;;;3.22;1.80;;;;;;;;;;5018943;28;20073;-76
2022/04/16 13:06:06;;;;;;;3.35;1.90;;;;;;;;;;4994509;28;20026;-76
2022/04/16 13:08:31;;;;;;;3.13;2.20;;;;;;;;;;4996143;28;20027;-77
2022/04/16 13:10:57;;;;;;;4.60;2.63;;;;;;;;;;5002135;28;20420;-78
2022/04/16 13:13:24;;;;;;;10.23;5.95;;;;;;;;;;5006971;28;20034;-77
2022/04/16 13:15:51;;;;;;;7.10;2.00;;;;;;;;;;5014745;28;20031;-76
2022/04/16 13:18:17;;;;;;;3.35;1.65;;;;;;;;;;5016607;28;20037;-77
2022/04/16 13:20:43;;;;;;;4.00;2.03;;;;;;;;;;5015186;28;20098;-77
2022/04/16 13:23:09;;;;;;;3.15;1.60;;;;;;;;;;5013460;28;20037;-77
2022/04/16 13:25:35;;;;;;;8.02;1.95;;;;;;;;;;4999742;28;20076;-77
2022/04/16 13:28:01;;;;;;;4.78;2.67;;;;;;;;;;4999425;28;20094;-77
2022/04/16 13:30:28;;;;;;;3.65;1.80;;;;;;;;;;4997896;28;20189;-77
2022/04/16 13:32:54;;;;;;;4.30;2.00;;;;;;;;;;4999452;28;20031;-77
2022/04/16 13:35:20;;;;;;;4.32;1.90;;;;;;;;;;4997597;28;20023;-77
2022/04/16 13:37:46;;;;;;;3.67;1.80;;;;;;;;;;5000722;28;20491;-78
2022/04/16 13:42:56;;;;;;;6.13;2.00;;;;;;;;;;5000092;28;20158;-77
2022/04/16 13:45:22;;;;;;;6.07;2.30;;;;;;;;;;4997814;28;20460;-78
2022/04/16 13:47:48;;;;;;;4.22;2.60;;;;;;;;;;5003670;28;20023;-77
2022/04/16 13:50:14;;;;;;;6.47;2.70;;;;;;;;;;5003965;28;20035;-76
2022/04/16 13:52:42;;;;;;;2.83;2.00;;;;;;;;;;5006658;28;20061;-76
2022/04/16 13:55:08;;;;;;;3.25;1.98;;;;;;;;;;5004893;28;20045;-77
2022/04/16 13:57:34;;;;;;;3.83;2.10;;;;;;;;;;5003950;28;20053;-77
2022/04/16 14:00:00;;;;;;;4.50;2.97;;;;;;;;;;5007061;28;20614;-77
2022/04/16 14:02:26;;;;;;;3.60;1.98;;;;;;;;;;5003204;28;20034;-77
2022/04/16 14:07:36;;;;;;;4.53;2.83;;;;;;;;;;5010473;28;20124;-76
2022/04/16 14:10:02;;;;;;;4.95;2.78;;;;;;;;;;5013749;28;20030;-76
2022/04/16 14:12:28;;;;;;;5.65;2.35;;;;;;;;;;5015108;28;20026;-75
2022/04/16 14:14:54;;;;;;;8.70;3.08;;;;;;;;;;5012830;28;20061;-75
2022/04/16 14:17:20;;;;;;;6.35;2.95;;;;;;;;;;5010086;28;20027;-77
2022/04/16 14:19:46;;;;;;;4.18;2.50;;;;;;;;;;5014130;28;20037;-76
2022/04/16 14:22:12;;;;;;;6.78;4.75;;;;;;;;;;5014977;28;20026;-76
2022/04/16 14:24:38;;;;;;;7.22;2.90;;;;;;;;;;5023767;28;20027;-76
2022/04/16 14:27:05;;;;;;;3.80;2.58;;;;;;;;;;5029656;28;20033;-78
2022/04/16 14:29:32;;;;;;;7.55;3.20;;;;;;;;;;5031268;28;20029;-75
2022/04/16 14:31:58;;;;;;;4.93;2.80;;;;;;;;;;5033371;28;20089;-75
2022/04/16 14:34:24;;;;;;;5.15;3.63;;;;;;;;;;5036381;28;20034;-76
2022/04/16 14:36:50;;;;;;;5.82;2.83;;;;;;;;;;5036789;28;20022;-76
2022/04/16 14:39:16;;;;;;;4.05;2.80;;;;;;;;;;5032815;28;20076;-75
2022/04/16 14:41:44;;;;;;;5.57;2.60;;;;;;;;;;5034326;28;20026;-76
2022/04/16 14:44:10;;;;;;;6.93;3.33;;;;;;;;;;5032162;28;20014;-77
2022/04/16 14:46:37;;;;;;;9.48;5.72;;;;;;;;;;5032499;28;20025;-76
2022/04/16 14:49:04;;;;;;;7.22;3.58;;;;;;;;;;5034242;28;20030;-76
2022/04/16 14:51:33;;;;;;;8.93;5.20;;;;;;;;;;5026093;28;20029;-75
2022/04/16 14:53:59;;;;;;;8.55;3.67;;;;;;;;;;5035531;28;20022;-76
2022/04/16 14:56:25;;;;;;;23.08;16.80;;;;;;;;;;5029894;28;20125;-79
2022/04/16 14:58:52;;;;;;;5.20;3.35;;;;;;;;;;5021399;28;20080;-78
2022/04/16 15:01:18;;;;;;;4.43;3.10;;;;;;;;;;5026472;28;20513;-77